sensor_id;sensor_type;location;lat;lon;timestamp;pressure;altitude;pressure_sealevel;temperature;humidity
6024;BME280;3040;42.654;23.296;2022-12-18T00:00:09;94949.81;;;7.73;100.00
6024;BME280;3040;42.654;23.296;2022-12-18T00:02:36;94951.50;;;7.92;100.00
6024;BME280;3040;42.654;23.296;2022-12-18T00:05:04;94957.31;;;8.02;98.86
6024;BME280;3040;42.654;23.296;2022-12-18T00:07:30;94958.00;;;7.86;99.43
6024;BME280;3040;42.654;23.296;2022-12-18T00:09:57;94955.94;;;8.05;98.18
6024;BME280;3040;42.654;23.296;2022-12-18T00:12:24;94961.59;;;8.12;97.40
6024;BME280;3040;42.654;23.296;2022-12-18T00:14:51;94945.94;;;8.02;96.30
6024;BME280;3040;42.654;23.296;2022-12-18T00:17:19;94967.84;;;8.16;96.61
6024;BME280;3040;42.654;23.296;2022-12-18T00:19:46;94980.59;;;8.14;95.55
6024;BME280;3040;42.654;23.296;2022-12-18T00:22:13;94979.75;;;8.27;94.91
6024;BME280;3040;42.654;23.296;2022-12-18T00:24:40;94981.69;;;7.46;97.73
6024;BME280;3040;42.654;23.296;2022-12-18T00:27:07;94982.94;;;7.13;99.77
6024;BME280;3040;42.654;23.296;2022-12-18T00:29:34;94981.75;;;7.19;100.00
6024;BME280;3040;42.654;23.296;2022-12-18T00:32:00;94989.38;;;7.34;100.00
6024;BME280;3040;42.654;23.296;2022-12-18T00:34:29;94879.13;;;6.93;99.30
6024;BME280;3040;42.654;23.296;2022-12-18T00:36:56;94981.13;;;7.94;97.79
6024;BME280;3040;42.654;23.296;2022-12-18T00:39:23;94988.44;;;7.74;96.54
6024;BME280;3040;42.654;23.296;2022-12-18T00:41:50;94988.41;;;7.88;96.06
6024;BME280;3040;42.654;23.296;2022-12-18T00:44:30;94997.94;;;7.53;95.50
6024;BME280;3040;42.654;23.296;2022-12-18T00:46:57;94999.97;;;7.07;97.71
6024;BME280;3040;42.654;23.296;2022-12-18T00:49:24;94996.75;;;7.10;100.00
6024;BME280;3040;42.654;23.296;2022-12-18T00:51:52;94976.00;;;6.89;99.06
6024;BME280;3040;42.654;23.296;2022-12-18T00:54:19;95004.69;;;6.82;99.55
6024;BME280;3040;42.654;23.296;2022-12-18T00:56:46;95013.53;;;7.05;99.78
6024;BME280;3040;42.654;23.296;2022-12-18T00:59:13;95002.13;;;6.64;99.95
6024;BME280;3040;42.654;23.296;2022-12-18T01:01:40;94980.41;;;6.26;100.00
6024;BME280;3040;42.654;23.296;2022-12-18T01:04:07;95000.56;;;6.76;100.00
6024;BME280;3040;42.654;23.296;2022-12-18T01:06:34;94977.03;;;6.06;100.00
6024;BME280;3040;42.654;23.296;2022-12-18T01:09:02;94856.53;;;5.18;100.00
6024;BME280;3040;42.654;23.296;2022-12-18T01:11:29;95015.44;;;6.59;100.00
6024;BME280;3040;42.654;23.296;2022-12-18T01:13:56;95024.31;;;6.03;100.00
6024;BME280;3040;42.654;23.296;2022-12-18T01:16:23;95024.63;;;6.01;100.00
6024;BME280;3040;42.654;23.296;2022-12-18T01:18:51;95016.53;;;6.11;100.00
6024;BME280;3040;42.654;23.296;2022-12-18T01:21:21;95023.25;;;6.36;100.00
6024;BME280;3040;42.654;23.296;2022-12-18T01:23:51;95026.03;;;6.59;99.70
6024;BME280;3040;42.654;23.296;2022-12-18T01:26:20;95009.00;;;6.78;99.43
6024;BME280;3040;42.654;23.296;2022-12-18T01:28:47;95008.50;;;7.04;97.67
6024;BME280;3040;42.654;23.296;2022-12-18T01:31:17;95025.22;;;7.40;95.74
6024;BME280;3040;42.654;23.296;2022-12-18T01:33:44;95044.81;;;7.39;94.11
6024;BME280;3040;42.654;23.296;2022-12-18T01:36:17;95020.63;;;7.32;93.12
6024;BME280;3040;42.654;23.296;2022-12-18T01:38:44;95050.50;;;7.46;93.16
6024;BME280;3040;42.654;23.296;2022-12-18T01:41:11;95040.31;;;7.40;92.91
6024;BME280;3040;42.654;23.296;2022-12-18T01:43:46;95043.56;;;7.72;92.06
6024;BME280;3040;42.654;23.296;2022-12-18T01:46:13;94982.72;;;7.23;90.93
6024;BME280;3040;42.654;23.296;2022-12-18T01:48:41;95052.59;;;7.71;90.66
6024;BME280;3040;42.654;23.296;2022-12-18T01:51:10;95047.19;;;7.76;90.17
6024;BME280;3040;42.654;23.296;2022-12-18T01:53:40;95051.19;;;7.88;89.76
6024;BME280;3040;42.654;23.296;2022-12-18T01:56:08;95049.78;;;7.54;89.79
6024;BME280;3040;42.654;23.296;2022-12-18T01:58:45;95052.75;;;6.71;92.81
6024;BME280;3040;42.654;23.296;2022-12-18T02:01:14;95055.53;;;6.33;95.08
6024;BME280;3040;42.654;23.296;2022-12-18T02:03:41;95025.09;;;5.85;99.15
6024;BME280;3040;42.654;23.296;2022-12-18T02:06:13;95048.53;;;6.56;98.67
6024;BME280;3040;42.654;23.296;2022-12-18T02:08:48;95063.13;;;6.53;96.85
6024;BME280;3040;42.654;23.296;2022-12-18T02:11:24;94970.34;;;5.95;94.71
6024;BME280;3040;42.654;23.296;2022-12-18T02:14:00;95051.78;;;6.21;97.25
6024;BME280;3040;42.654;23.296;2022-12-18T02:16:35;95068.78;;;6.15;97.01
6024;BME280;3040;42.654;23.296;2022-12-18T02:19:08;95066.34;;;6.50;97.13
6024;BME280;3040;42.654;23.296;2022-12-18T02:21:51;95088.53;;;6.95;95.57
6024;BME280;3040;42.654;23.296;2022-12-18T02:24:31;95069.94;;;7.28;94.78
6024;BME280;3040;42.654;23.296;2022-12-18T02:27:03;95071.38;;;7.34;93.17
6024;BME280;3040;42.654;23.296;2022-12-18T02:29:36;95080.28;;;7.38;92.09
6024;BME280;3040;42.654;23.296;2022-12-18T02:32:06;95074.44;;;7.41;91.76
6024;BME280;3040;42.654;23.296;2022-12-18T02:34:38;95073.31;;;7.56;90.62
6024;BME280;3040;42.654;23.296;2022-12-18T02:37:09;95076.97;;;7.46;90.06
6024;BME280;3040;42.654;23.296;2022-12-18T02:39:39;95077.13;;;7.63;90.07
6024;BME280;3040;42.654;23.296;2022-12-18T02:42:10;95083.78;;;7.61;89.28
6024;BME280;3040;42.654;23.296;2022-12-18T02:44:42;95085.88;;;7.50;89.59
6024;BME280;3040;42.654;23.296;2022-12-18T02:47:10;95056.03;;;7.09;89.49
6024;BME280;3040;42.654;23.296;2022-12-18T02:49:44;95076.78;;;7.29;90.08
6024;BME280;3040;42.654;23.296;2022-12-18T02:52:20;95090.47;;;7.45;89.29
6024;BME280;3040;42.654;23.296;2022-12-18T02:54:59;95077.25;;;7.58;88.94
6024;BME280;3040;42.654;23.296;2022-12-18T02:57:34;95078.34;;;7.30;88.76
6024;BME280;3040;42.654;23.296;2022-12-18T03:00:06;95082.38;;;7.14;90.00
6024;BME280;3040;42.654;23.296;2022-12-18T03:02:39;94961.44;;;6.37;89.85
6024;BME280;3040;42.654;23.296;2022-12-18T03:05:14;95083.59;;;5.73;95.05
6024;BME280;3040;42.654;23.296;2022-12-18T03:07:46;95085.63;;;5.81;97.01
6024;BME280;3040;42.654;23.296;2022-12-18T03:10:19;95090.38;;;6.35;95.85
6024;BME280;3040;42.654;23.296;2022-12-18T03:12:52;95082.56;;;6.11;95.36
6024;BME280;3040;42.654;23.296;2022-12-18T03:15:25;95100.38;;;5.63;97.08
6024;BME280;3040;42.654;23.296;2022-12-18T03:17:59;95103.53;;;5.65;98.83
6024;BME280;3040;42.654;23.296;2022-12-18T03:20:29;95094.69;;;5.32;99.42
6024;BME280;3040;42.654;23.296;2022-12-18T03:23:00;95097.63;;;5.07;100.00
6024;BME280;3040;42.654;23.296;2022-12-18T03:25:30;95084.63;;;4.92;100.00
6024;BME280;3040;42.654;23.296;2022-12-18T03:28:00;95074.88;;;4.69;100.00
6024;BME280;3040;42.654;23.296;2022-12-18T03:30:29;95096.56;;;4.84;100.00
6024;BME280;3040;42.654;23.296;2022-12-18T03:33:02;95100.44;;;4.92;100.00
6024;BME280;3040;42.654;23.296;2022-12-18T03:35:33;95107.13;;;5.08;100.00
6024;BME280;3040;42.654;23.296;2022-12-18T03:38:01;95115.25;;;4.88;100.00
6024;BME280;3040;42.654;23.296;2022-12-18T03:40:33;95115.47;;;4.91;100.00
6024;BME280;3040;42.654;23.296;2022-12-18T03:43:08;95129.16;;;4.94;100.00
6024;BME280;3040;42.654;23.296;2022-12-18T03:45:42;95123.28;;;4.73;100.00
6024;BME280;3040;42.654;23.296;2022-12-18T03:48:16;95120.53;;;4.59;100.00
6024;BME280;3040;42.654;23.296;2022-12-18T03:50:49;95137.69;;;4.57;100.00
6024;BME280;3040;42.654;23.296;2022-12-18T03:53:25;95147.34;;;4.66;100.00
6024;BME280;3040;42.654;23.296;2022-12-18T03:55:56;95146.91;;;4.54;100.00
6024;BME280;3040;42.654;23.296;2022-12-18T03:58:26;95150.22;;;4.70;100.00
6024;BME280;3040;42.654;23.296;2022-12-18T04:00:58;95129.22;;;4.60;100.00
6024;BME280;3040;42.654;23.296;2022-12-18T04:03:28;95151.88;;;4.61;100.00
6024;BME280;3040;42.654;23.296;2022-12-18T04:05:57;95144.53;;;4.53;100.00
6024;BME280;3040;42.654;23.296;2022-12-18T04:08:25;95177.09;;;4.67;100.00
6024;BME280;3040;42.654;23.296;2022-12-18T04:10:53;95157.13;;;4.61;100.00
6024;BME280;3040;42.654;23.296;2022-12-18T04:13:23;95165.16;;;4.45;100.00
6024;BME280;3040;42.654;23.296;2022-12-18T04:15:51;95176.75;;;4.44;100.00
6024;BME280;3040;42.654;23.296;2022-12-18T04:18:18;95176.13;;;4.58;100.00
6024;BME280;3040;42.654;23.296;2022-12-18T04:20:46;95185.59;;;4.59;100.00
6024;BME280;3040;42.654;23.296;2022-12-18T04:23:12;95181.63;;;4.90;99.25
6024;BME280;3040;42.654;23.296;2022-12-18T04:25:39;95199.66;;;4.78;98.52
6024;BME280;3040;42.654;23.296;2022-12-18T04:28:06;95182.69;;;4.60;98.66
6024;BME280;3040;42.654;23.296;2022-12-18T04:30:33;95178.25;;;4.56;98.99
6024;BME280;3040;42.654;23.296;2022-12-18T04:33:01;95181.78;;;4.41;98.49
6024;BME280;3040;42.654;23.296;2022-12-18T04:35:28;95200.47;;;4.44;99.61
6024;BME280;3040;42.654;23.296;2022-12-18T04:37:55;95208.41;;;4.39;98.77
6024;BME280;3040;42.654;23.296;2022-12-18T04:40:22;95198.41;;;4.36;98.33
6024;BME280;3040;42.654;23.296;2022-12-18T04:42:49;95205.81;;;4.29;98.04
6024;BME280;3040;42.654;23.296;2022-12-18T04:45:16;95208.34;;;4.05;96.94
6024;BME280;3040;42.654;23.296;2022-12-18T04:47:42;95213.06;;;4.08;97.18
6024;BME280;3040;42.654;23.296;2022-12-18T04:50:11;95214.88;;;4.13;97.22
6024;BME280;3040;42.654;23.296;2022-12-18T04:52:38;95223.75;;;4.22;98.23
6024;BME280;3040;42.654;23.296;2022-12-18T04:55:05;95197.09;;;3.95;98.04
6024;BME280;3040;42.654;23.296;2022-12-18T04:57:32;95229.28;;;4.26;98.02
6024;BME280;3040;42.654;23.296;2022-12-18T04:59:59;95209.53;;;4.23;98.10
6024;BME280;3040;42.654;23.296;2022-12-18T05:02:26;95232.56;;;4.52;96.40
6024;BME280;3040;42.654;23.296;2022-12-18T05:04:53;95245.50;;;4.43;96.29
6024;BME280;3040;42.654;23.296;2022-12-18T05:07:21;95244.91;;;4.56;95.77
6024;BME280;3040;42.654;23.296;2022-12-18T05:09:48;95244.03;;;4.66;95.67
6024;BME280;3040;42.654;23.296;2022-12-18T05:12:15;95252.19;;;4.64;94.03
6024;BME280;3040;42.654;23.296;2022-12-18T05:14:42;95201.38;;;4.64;94.92
6024;BME280;3040;42.654;23.296;2022-12-18T05:17:09;95243.28;;;4.94;94.58
6024;BME280;3040;42.654;23.296;2022-12-18T05:19:35;95244.47;;;5.12;93.85
6024;BME280;3040;42.654;23.296;2022-12-18T05:22:02;95244.31;;;5.27;91.80
6024;BME280;3040;42.654;23.296;2022-12-18T05:24:30;95237.69;;;5.29;91.22
6024;BME280;3040;42.654;23.296;2022-12-18T05:26:57;95258.09;;;5.48;91.97
6024;BME280;3040;42.654;23.296;2022-12-18T05:29:24;95238.34;;;5.16;91.27
6024;BME280;3040;42.654;23.296;2022-12-18T05:31:51;95260.16;;;4.93;91.61
6024;BME280;3040;42.654;23.296;2022-12-18T05:34:18;95268.25;;;4.68;93.91
6024;BME280;3040;42.654;23.296;2022-12-18T05:36:45;95271.19;;;4.61;94.42
6024;BME280;3040;42.654;23.296;2022-12-18T05:39:12;95264.00;;;4.72;93.79
6024;BME280;3040;42.654;23.296;2022-12-18T05:41:41;95288.41;;;4.87;93.10
6024;BME280;3040;42.654;23.296;2022-12-18T05:44:08;95281.56;;;4.86;93.39
6024;BME280;3040;42.654;23.296;2022-12-18T05:46:36;95281.72;;;5.00;91.35
6024;BME280;3040;42.654;23.296;2022-12-18T05:49:03;95295.25;;;5.22;90.84
6024;BME280;3040;42.654;23.296;2022-12-18T05:51:30;95288.78;;;5.39;89.26
6024;BME280;3040;42.654;23.296;2022-12-18T05:53:57;95290.25;;;5.50;88.29
6024;BME280;3040;42.654;23.296;2022-12-18T05:56:25;95298.25;;;5.40;88.36
6024;BME280;3040;42.654;23.296;2022-12-18T05:58:54;95288.81;;;5.33;88.12
6024;BME280;3040;42.654;23.296;2022-12-18T06:01:23;95275.19;;;4.54;90.40
6024;BME280;3040;42.654;23.296;2022-12-18T06:03:52;95305.53;;;4.51;92.40
6024;BME280;3040;42.654;23.296;2022-12-18T06:06:21;95316.66;;;4.38;93.65
6024;BME280;3040;42.654;23.296;2022-12-18T06:08:49;95321.28;;;4.56;94.20
6024;BME280;3040;42.654;23.296;2022-12-18T06:11:18;95318.47;;;4.42;93.76
6024;BME280;3040;42.654;23.296;2022-12-18T06:13:46;95315.16;;;4.22;94.33
6024;BME280;3040;42.654;23.296;2022-12-18T06:16:17;95316.53;;;4.09;94.84
6024;BME280;3040;42.654;23.296;2022-12-18T06:18:44;95322.03;;;4.07;95.30
6024;BME280;3040;42.654;23.296;2022-12-18T06:21:11;95322.84;;;4.08;95.59
6024;BME280;3040;42.654;23.296;2022-12-18T06:23:38;95323.03;;;4.17;94.41
6024;BME280;3040;42.654;23.296;2022-12-18T06:26:06;95332.84;;;4.06;95.22
6024;BME280;3040;42.654;23.296;2022-12-18T06:28:33;95339.19;;;3.95;95.23
6024;BME280;3040;42.654;23.296;2022-12-18T06:31:00;95340.75;;;4.01;94.20
6024;BME280;3040;42.654;23.296;2022-12-18T06:33:28;95331.81;;;3.97;94.68
6024;BME280;3040;42.654;23.296;2022-12-18T06:36:00;95348.88;;;4.04;94.47
6024;BME280;3040;42.654;23.296;2022-12-18T06:38:27;95341.53;;;4.01;93.44
6024;BME280;3040;42.654;23.296;2022-12-18T06:40:54;95348.97;;;3.84;93.76
6024;BME280;3040;42.654;23.296;2022-12-18T06:43:21;95366.56;;;3.89;94.11
6024;BME280;3040;42.654;23.296;2022-12-18T06:45:47;95314.50;;;3.76;95.03
6024;BME280;3040;42.654;23.296;2022-12-18T06:48:18;95357.63;;;3.90;94.12
6024;BME280;3040;42.654;23.296;2022-12-18T06:50:46;95355.50;;;4.02;93.79
6024;BME280;3040;42.654;23.296;2022-12-18T06:53:13;95365.97;;;4.12;93.39
6024;BME280;3040;42.654;23.296;2022-12-18T06:55:41;95370.78;;;3.95;92.04
6024;BME280;3040;42.654;23.296;2022-12-18T06:58:07;95379.19;;;3.92;92.80
6024;BME280;3040;42.654;23.296;2022-12-18T07:00:34;95368.66;;;3.97;93.44
6024;BME280;3040;42.654;23.296;2022-12-18T07:03:01;95378.69;;;3.90;91.75
6024;BME280;3040;42.654;23.296;2022-12-18T07:05:28;95377.09;;;3.89;91.70
6024;BME280;3040;42.654;23.296;2022-12-18T07:07:57;95375.50;;;3.93;92.83
6024;BME280;3040;42.654;23.296;2022-12-18T07:10:27;95391.81;;;3.95;91.74
6024;BME280;3040;42.654;23.296;2022-12-18T07:12:54;95348.97;;;3.79;91.84
6024;BME280;3040;42.654;23.296;2022-12-18T07:15:21;95383.41;;;4.03;91.91
6024;BME280;3040;42.654;23.296;2022-12-18T07:17:48;95376.03;;;3.95;91.79
6024;BME280;3040;42.654;23.296;2022-12-18T07:20:14;95382.59;;;3.92;91.46
6024;BME280;3040;42.654;23.296;2022-12-18T07:22:41;95384.47;;;3.97;91.30
6024;BME280;3040;42.654;23.296;2022-12-18T07:25:10;95385.53;;;3.91;90.61
6024;BME280;3040;42.654;23.296;2022-12-18T07:27:36;95377.66;;;3.86;91.04
6024;BME280;3040;42.654;23.296;2022-12-18T07:30:04;95383.41;;;3.93;91.10
6024;BME280;3040;42.654;23.296;2022-12-18T07:32:31;95403.66;;;3.92;90.67
6024;BME280;3040;42.654;23.296;2022-12-18T07:34:58;95406.31;;;3.97;90.19
6024;BME280;3040;42.654;23.296;2022-12-18T07:37:25;95375.81;;;3.76;89.89
6024;BME280;3040;42.654;23.296;2022-12-18T07:39:52;95407.63;;;3.95;89.88
6024;BME280;3040;42.654;23.296;2022-12-18T07:42:20;95404.44;;;3.93;90.17
6024;BME280;3040;42.654;23.296;2022-12-18T07:45:00;95263.09;;;3.09;90.52
6024;BME280;3040;42.654;23.296;2022-12-18T07:47:27;95410.22;;;4.00;90.62
6024;BME280;3040;42.654;23.296;2022-12-18T07:49:57;95410.75;;;4.07;90.51
6024;BME280;3040;42.654;23.296;2022-12-18T07:52:24;95411.22;;;4.24;91.24
6024;BME280;3040;42.654;23.296;2022-12-18T07:54:50;95415.59;;;4.54;90.75
6024;BME280;3040;42.654;23.296;2022-12-18T07:57:18;95417.91;;;4.66;89.26
6024;BME280;3040;42.654;23.296;2022-12-18T07:59:46;95422.50;;;4.99;87.81
6024;BME280;3040;42.654;23.296;2022-12-18T08:02:13;95421.75;;;5.32;86.30
6024;BME280;3040;42.654;23.296;2022-12-18T08:04:41;95433.47;;;5.16;85.96
6024;BME280;3040;42.654;23.296;2022-12-18T08:07:08;95438.59;;;5.37;85.10
6024;BME280;3040;42.654;23.296;2022-12-18T08:09:35;95443.22;;;4.62;87.62
6024;BME280;3040;42.654;23.296;2022-12-18T08:12:03;95306.13;;;3.74;86.76
6024;BME280;3040;42.654;23.296;2022-12-18T08:14:30;95441.28;;;4.08;88.21
6024;BME280;3040;42.654;23.296;2022-12-18T08:16:59;95440.34;;;4.53;88.68
6024;BME280;3040;42.654;23.296;2022-12-18T08:19:26;95456.44;;;4.57;86.85
6024;BME280;3040;42.654;23.296;2022-12-18T08:21:53;95459.41;;;4.25;87.61
6024;BME280;3040;42.654;23.296;2022-12-18T08:24:20;95457.03;;;4.23;88.13
6024;BME280;3040;42.654;23.296;2022-12-18T08:26:47;95450.19;;;4.32;89.30
6024;BME280;3040;42.654;23.296;2022-12-18T08:29:14;95470.44;;;4.37;88.50
6024;BME280;3040;42.654;23.296;2022-12-18T08:31:41;95475.94;;;4.40;88.44
6024;BME280;3040;42.654;23.296;2022-12-18T08:34:09;95479.13;;;4.37;88.27
6024;BME280;3040;42.654;23.296;2022-12-18T08:36:36;95476.25;;;4.39;88.77
6024;BME280;3040;42.654;23.296;2022-12-18T08:39:03;95481.22;;;4.45;88.81
6024;BME280;3040;42.654;23.296;2022-12-18T08:41:31;95482.22;;;4.60;88.50
6024;BME280;3040;42.654;23.296;2022-12-18T08:43:58;95483.16;;;4.89;88.58
6024;BME280;3040;42.654;23.296;2022-12-18T08:46:43;95464.94;;;4.98;86.21
6024;BME280;3040;42.654;23.296;2022-12-18T08:49:12;95471.34;;;5.36;86.32
6024;BME280;3040;42.654;23.296;2022-12-18T08:51:40;95485.56;;;5.40;85.34
6024;BME280;3040;42.654;23.296;2022-12-18T08:54:08;95486.66;;;5.33;83.65
6024;BME280;3040;42.654;23.296;2022-12-18T08:56:37;95487.31;;;5.10;84.43
6024;BME280;3040;42.654;23.296;2022-12-18T08:59:04;95487.78;;;5.17;86.06
6024;BME280;3040;42.654;23.296;2022-12-18T09:01:31;95479.06;;;5.22;84.17
6024;BME280;3040;42.654;23.296;2022-12-18T09:03:59;95476.06;;;5.39;83.41
6024;BME280;3040;42.654;23.296;2022-12-18T09:06:27;95465.69;;;5.52;83.11
6024;BME280;3040;42.654;23.296;2022-12-18T09:08:54;95478.41;;;5.79;82.86
6024;BME280;3040;42.654;23.296;2022-12-18T09:11:22;95466.50;;;5.48;82.92
6024;BME280;3040;42.654;23.296;2022-12-18T09:13:49;95481.38;;;5.33;83.21
6024;BME280;3040;42.654;23.296;2022-12-18T09:16:17;95432.72;;;5.50;86.41
6024;BME280;3040;42.654;23.296;2022-12-18T09:18:44;95468.50;;;6.00;83.85
6024;BME280;3040;42.654;23.296;2022-12-18T09:21:13;95477.69;;;5.35;85.27
6024;BME280;3040;42.654;23.296;2022-12-18T09:23:42;95430.69;;;5.42;87.31
6024;BME280;3040;42.654;23.296;2022-12-18T09:26:10;95473.69;;;5.42;85.63
6024;BME280;3040;42.654;23.296;2022-12-18T09:28:36;95473.78;;;5.66;84.70
6024;BME280;3040;42.654;23.296;2022-12-18T09:31:05;95460.13;;;5.93;84.15
6024;BME280;3040;42.654;23.296;2022-12-18T09:33:33;95477.63;;;6.41;81.97
6024;BME280;3040;42.654;23.296;2022-12-18T09:36:01;95477.22;;;6.53;81.12
6024;BME280;3040;42.654;23.296;2022-12-18T09:38:28;95473.84;;;6.71;80.31
6024;BME280;3040;42.654;23.296;2022-12-18T09:40:59;95473.69;;;6.86;79.33
6024;BME280;3040;42.654;23.296;2022-12-18T09:43:33;95484.09;;;6.54;79.21
6024;BME280;3040;42.654;23.296;2022-12-18T09:46:05;95474.44;;;6.68;80.57
6024;BME280;3040;42.654;23.296;2022-12-18T09:48:35;95480.66;;;6.53;79.20
6024;BME280;3040;42.654;23.296;2022-12-18T09:51:15;95472.81;;;5.52;82.83
6024;BME280;3040;42.654;23.296;2022-12-18T09:53:47;95483.28;;;5.62;83.34
6024;BME280;3040;42.654;23.296;2022-12-18T09:56:21;95486.44;;;5.20;84.37
6024;BME280;3040;42.654;23.296;2022-12-18T09:58:53;95476.63;;;5.30;83.34
6024;BME280;3040;42.654;23.296;2022-12-18T10:01:24;95460.31;;;5.62;87.01
6024;BME280;3040;42.654;23.296;2022-12-18T10:03:52;95471.09;;;5.71;82.29
6024;BME280;3040;42.654;23.296;2022-12-18T10:06:23;95477.81;;;5.09;82.00
6024;BME280;3040;42.654;23.296;2022-12-18T10:08:55;95469.00;;;5.68;82.61
6024;BME280;3040;42.654;23.296;2022-12-18T10:11:34;95464.94;;;6.15;79.79
6024;BME280;3040;42.654;23.296;2022-12-18T10:14:09;95457.44;;;6.27;78.37
6024;BME280;3040;42.654;23.296;2022-12-18T10:16:44;95475.31;;;6.59;76.55
6024;BME280;3040;42.654;23.296;2022-12-18T10:19:43;95486.13;;;6.62;74.94
6024;BME280;3040;42.654;23.296;2022-12-18T10:25:05;95480.03;;;6.85;75.72
6024;BME280;3040;42.654;23.296;2022-12-18T10:27:42;95468.34;;;6.68;74.19
6024;BME280;3040;42.654;23.296;2022-12-18T10:30:13;95485.56;;;6.65;73.95
6024;BME280;3040;42.654;23.296;2022-12-18T10:32:40;95476.34;;;6.86;74.33
6024;BME280;3040;42.654;23.296;2022-12-18T10:35:11;95427.72;;;5.82;74.34
6024;BME280;3040;42.654;23.296;2022-12-18T10:37:59;95475.91;;;5.98;75.89
6024;BME280;3040;42.654;23.296;2022-12-18T10:40:27;95478.22;;;5.31;78.90
6024;BME280;3040;42.654;23.296;2022-12-18T10:43:05;95479.63;;;4.55;80.68
6024;BME280;3040;42.654;23.296;2022-12-18T10:45:37;95482.31;;;4.39;82.31
6024;BME280;3040;42.654;23.296;2022-12-18T10:48:16;95460.72;;;4.32;79.78
6024;BME280;3040;42.654;23.296;2022-12-18T10:50:47;95367.16;;;3.45;80.94
6024;BME280;3040;42.654;23.296;2022-12-18T10:53:19;95471.81;;;4.19;80.65
6024;BME280;3040;42.654;23.296;2022-12-18T10:55:46;95483.69;;;3.96;80.72
6024;BME280;3040;42.654;23.296;2022-12-18T10:58:23;95425.03;;;3.60;81.79
6024;BME280;3040;42.654;23.296;2022-12-18T11:01:06;95467.13;;;3.86;80.78
6024;BME280;3040;42.654;23.296;2022-12-18T11:03:35;95453.16;;;3.80;80.61
6024;BME280;3040;42.654;23.296;2022-12-18T11:06:05;95471.31;;;3.72;79.57
6024;BME280;3040;42.654;23.296;2022-12-18T11:08:32;95475.78;;;3.76;80.71
6024;BME280;3040;42.654;23.296;2022-12-18T11:10:59;95479.72;;;3.94;80.40
6024;BME280;3040;42.654;23.296;2022-12-18T11:13:29;95475.25;;;4.09;79.34
6024;BME280;3040;42.654;23.296;2022-12-18T11:15:57;95433.94;;;3.75;79.64
6024;BME280;3040;42.654;23.296;2022-12-18T11:18:27;95467.63;;;3.93;79.72
6024;BME280;3040;42.654;23.296;2022-12-18T11:20:56;95491.31;;;3.93;79.18
6024;BME280;3040;42.654;23.296;2022-12-18T11:23:24;95492.34;;;4.07;78.90
6024;BME280;3040;42.654;23.296;2022-12-18T11:25:54;95454.44;;;3.98;77.72
6024;BME280;3040;42.654;23.296;2022-12-18T11:28:29;95482.88;;;4.01;77.91
6024;BME280;3040;42.654;23.296;2022-12-18T11:31:19;95467.91;;;3.76;78.05
6024;BME280;3040;42.654;23.296;2022-12-18T11:33:54;95488.41;;;3.89;77.64
6024;BME280;3040;42.654;23.296;2022-12-18T11:36:23;95485.50;;;3.81;77.78
6024;BME280;3040;42.654;23.296;2022-12-18T11:38:52;95479.22;;;3.66;77.67
6024;BME280;3040;42.654;23.296;2022-12-18T11:41:24;95439.75;;;3.41;77.34
6024;BME280;3040;42.654;23.296;2022-12-18T11:44:19;95485.78;;;3.74;77.55
6024;BME280;3040;42.654;23.296;2022-12-18T11:46:52;95497.63;;;3.87;76.69
6024;BME280;3040;42.654;23.296;2022-12-18T11:49:25;95488.16;;;3.96;77.21
6024;BME280;3040;42.654;23.296;2022-12-18T11:51:58;95483.16;;;3.89;76.85
6024;BME280;3040;42.654;23.296;2022-12-18T11:54:26;95464.47;;;3.65;77.44
6024;BME280;3040;42.654;23.296;2022-12-18T11:56:56;95468.94;;;3.70;77.65
6024;BME280;3040;42.654;23.296;2022-12-18T11:59:33;95468.16;;;3.75;77.99
6024;BME280;3040;42.654;23.296;2022-12-18T12:02:17;95480.25;;;3.81;78.06
6024;BME280;3040;42.654;23.296;2022-12-18T12:05:05;95467.63;;;3.83;77.65
6024;BME280;3040;42.654;23.296;2022-12-18T12:07:43;95477.63;;;3.86;77.67
6024;BME280;3040;42.654;23.296;2022-12-18T12:10:28;95478.16;;;3.78;77.52
6024;BME280;3040;42.654;23.296;2022-12-18T12:13:12;95482.09;;;3.75;78.21
6024;BME280;3040;42.654;23.296;2022-12-18T12:15:52;95456.31;;;3.72;78.05
6024;BME280;3040;42.654;23.296;2022-12-18T12:18:32;95470.53;;;3.91;78.30
6024;BME280;3040;42.654;23.296;2022-12-18T12:21:09;95473.16;;;3.91;78.22
6024;BME280;3040;42.654;23.296;2022-12-18T12:23:42;95468.66;;;4.02;78.66
6024;BME280;3040;42.654;23.296;2022-12-18T12:26:16;95463.13;;;3.93;78.14
6024;BME280;3040;42.654;23.296;2022-12-18T12:28:58;95470.78;;;3.95;78.67
6024;BME280;3040;42.654;23.296;2022-12-18T12:31:53;95473.41;;;3.90;77.95
6024;BME280;3040;42.654;23.296;2022-12-18T12:34:26;95489.47;;;4.03;78.49
6024;BME280;3040;42.654;23.296;2022-12-18T12:37:07;95486.56;;;4.05;78.37
6024;BME280;3040;42.654;23.296;2022-12-18T12:39:42;95490.75;;;4.21;78.88
6024;BME280;3040;42.654;23.296;2022-12-18T12:42:15;95489.69;;;4.27;78.32
6024;BME280;3040;42.654;23.296;2022-12-18T12:45:05;95449.19;;;3.88;78.64
6024;BME280;3040;42.654;23.296;2022-12-18T12:47:38;95480.78;;;4.08;78.96
6024;BME280;3040;42.654;23.296;2022-12-18T12:50:14;95485.78;;;4.09;79.10
6024;BME280;3040;42.654;23.296;2022-12-18T12:52:45;95483.41;;;3.93;78.83
6024;BME280;3040;42.654;23.296;2022-12-18T12:55:16;95462.34;;;3.88;79.65
6024;BME280;3040;42.654;23.296;2022-12-18T12:57:50;95500.75;;;4.04;80.11
6024;BME280;3040;42.654;23.296;2022-12-18T13:00:19;95499.72;;;4.05;80.41
6024;BME280;3040;42.654;23.296;2022-12-18T13:02:51;95470.00;;;3.84;80.39
6024;BME280;3040;42.654;23.296;2022-12-18T13:05:25;95490.25;;;3.94;80.88
6024;BME280;3040;42.654;23.296;2022-12-18T13:07:59;95496.03;;;4.01;81.18
6024;BME280;3040;42.654;23.296;2022-12-18T13:10:32;95495.00;;;3.97;81.02
6024;BME280;3040;42.654;23.296;2022-12-18T13:13:01;95482.91;;;3.86;81.04
6024;BME280;3040;42.654;23.296;2022-12-18T13:15:31;95514.72;;;4.25;81.07
6024;BME280;3040;42.654;23.296;2022-12-18T13:18:18;95517.31;;;4.45;81.69
6024;BME280;3040;42.654;23.296;2022-12-18T13:20:47;95524.13;;;4.56;80.01
6024;BME280;3040;42.654;23.296;2022-12-18T13:23:33;95522.31;;;4.52;79.84
6024;BME280;3040;42.654;23.296;2022-12-18T13:26:30;95523.34;;;4.56;79.57
6024;BME280;3040;42.654;23.296;2022-12-18T13:28:59;95523.31;;;4.66;80.10
6024;BME280;3040;42.654;23.296;2022-12-18T13:34:37;95422.56;;;4.25;78.80
6024;BME280;3040;42.654;23.296;2022-12-18T13:37:39;95535.25;;;5.17;77.46
6024;BME280;3040;42.654;23.296;2022-12-18T13:43:33;95445.53;;;3.58;79.00
6024;BME280;3040;42.654;23.296;2022-12-18T13:46:05;95531.28;;;4.25;80.08